Nearby METAR Reports

 

KAPA - Denver/Arapahoe, Colorado, USA
Distance from station: ENE 3mi, 4km
Updated: Sun, 12/17/2017 7:53am MST
Overcast
Overcast
 Wind from calm
Wind: Calm
Temperature: 28°F , -2°C
Dew Point: 27°F , -3°C
Humidity: 93%
Barometer: 29.99 inHg , 1015.6 hPa
Clouds: Overcast
Visibility: 7 miles , 11 km
Cloud details: Few Clouds 500 ft
Partly cloudy 1000 ft
Overcast 2500 ft
2017/12/17 14:53 KAPA 171453Z 00000KT 7SM FEW005 SCT010 OVC025 M02/M03 A2999 RMK AO2 SLP180 T10171033 51014
KBKF - Buckley Angb/Den, Colorado, USA
Distance from station: NE 14mi, 22km
Updated: Sun, 12/17/2017 7:58am MST
Overcast
Overcast
 Wind from E
Wind: E 3 mph , 6 km/h
Temperature: 28°F , -2°C
Dew Point: 28°F , -2°C
Humidity: 100%
Barometer: 30.00 inHg , 1015.9 hPa
Clouds: Overcast
Visibility: 10 miles , 16 km
Cloud details: Overcast 2400 ft
2017/12/17 14:58 KBKF 171458Z 08003KT 10SM OVC024 M02/M02 A3000 RMK AO2A SLP178 T10221023 51014
 
KDEN - Denver (dia), Colorado, USA
Distance from station: NNE 24mi, 39km
Updated: Sun, 12/17/2017 7:53am MST
Overcast
Overcast
 Wind from calm
Wind: Calm
Temperature: 28°F , -2°C
Dew Point: 27°F , -3°C
Humidity: 93%
Barometer: 30.01 inHg , 1016.3 hPa
Clouds: Overcast
Visibility: 9 miles , 14 km
Cloud details: Partly cloudy 1500 ft
Overcast 2500 ft
2017/12/17 14:53 KDEN 171453Z 00000KT 9SM SCT015 OVC025 M02/M03 A3001 RMK AO2 SNB00E11 SLP177 P0000 60000 T10171033 51014 $
KFTG - Denver F. Range, Colorado, USA
Distance from station: NE 24mi, 39km
Updated: Sun, 12/17/2017 8:45am MST
Overcast
Overcast
 Wind from calm
Wind: Calm
Temperature: 30°F , -1°C
Dew Point: 30°F , -1°C
Humidity: 100%
Barometer: 30.02 inHg , 1016.6 hPa
Clouds: Overcast
Visibility: 10 miles , 16 km
Cloud details: Mostly cloudy 500 ft
Overcast 2000 ft
2017/12/17 15:45 KFTG 171545Z 00000KT 10SM BKN005 OVC020 M01/M01 A3002
 
KBJC - Broomfield/Jeffc, Colorado, USA
Distance from station: NNW 26mi, 42km
Updated: Sun, 12/17/2017 7:45am MST
Overcast
Overcast
 Wind from NNE
Wind: NNE 3 mph , 6 km/h
Temperature: 30°F , -1°C
Dew Point: 28°F , -2°C
Humidity: 93%
Barometer: 30.00 inHg , 1015.9 hPa
Clouds: Overcast
Visibility: 10 miles , 16 km
Cloud details: Mostly cloudy 1000 ft
Overcast 2000 ft
2017/12/17 14:45 KBJC 171445Z 03003KT 10SM BKN010 OVC020 M01/M02 A3000
KMNH - Monument/Elbert, Colorado, USA
Distance from station: SSE 27mi, 43km
Updated: Sun, 12/17/2017 8:33am MST
Overcast
Overcast
 Wind from calm
Wind: Calm
Temperature: 23°F , -5°C
Dew Point: 23°F , -5°C
Humidity: 100%
Barometer: 29.99 inHg , 1015.6 hPa
Clouds: Overcast
Visibility: 10 miles , 16 km
Cloud details: Overcast 600 ft
2017/12/17 15:33 KMNH 171533Z AUTO 00000KT 10SM OVC006 M05/M05 A2999 RMK AO2
 
KEIK - Erie Muni, Colorado, USA
Distance from station: NNW 33mi, 53km
Updated: Sun, 12/17/2017 8:30am MST
Overcast
Overcast
 Wind from calm
Wind: Calm
Temperature: 32°F , 0°C
Dew Point: 30°F , -1°C
Humidity: 93%
Barometer: 30.07 inHg , 1018.3 hPa
Clouds: Overcast
Visibility: 10 miles , 16 km
Cloud details: Partly cloudy 1000 ft
Partly cloudy 1700 ft
Overcast 2400 ft
2017/12/17 15:30 KEIK 171530Z AUTO 00000KT 10SM SCT010 SCT017 OVC024 00/M01 A3007 RMK AO2 T10011011
KBDU - Boulder Muni, Colorado, USA
Distance from station: NNW 38mi, 60km
Updated: Sun, 12/17/2017 8:35am MST
Mist, Overcast
Mist, Overcast
 Wind from E
Wind: E 3 mph , 6 km/h
Temperature: 32°F , 0°C
Dew Point: 30°F , -1°C
Humidity: 93%
Barometer: 30.01 inHg , 1016.3 hPa
Summary: Mist
Clouds: Overcast
Visibility: 5 miles , 8 km
Cloud details: Mostly cloudy 300 ft
Overcast 1900 ft
2017/12/17 15:35 KBDU 171535Z AUTO 09003KT 5SM BR BKN003 OVC019 00/M01 A3001 RMK AO2
 
KAFF - Usaf Academy/Cos, Colorado, USA
Distance from station: S 41mi, 66km
Updated: Sun, 12/17/2017 8:28am MST
Overcast
Overcast
 Wind from SSE
Wind: SSE 6 mph , 9 km/h
Temperature: 23°F , -5°C
Wind Chill: 16°F , -9°C
Dew Point: 21°F , -6°C
Humidity: 93%
Barometer: 29.99 inHg , 1015.6 hPa
Clouds: Overcast
Visibility: 10 miles , 16 km
Cloud details: Mostly cloudy 600 ft
Overcast 1300 ft
2017/12/17 15:28 KAFF 171528Z 16005KT 10SM BKN006 OVC013 M05/M06 A2999 RMK AO2A SLPNO
KLMO - Longmont/Vbrand, Colorado, USA
Distance from station: NNW 45mi, 72km
Updated: Sun, 12/17/2017 8:35am MST
Overcast
Overcast
 Wind from ESE
Wind: ESE 3 mph , 6 km/h
Temperature: 34°F , 1°C
Dew Point: 32°F , 0°C
Humidity: 93%
Barometer: 30.04 inHg , 1017.3 hPa
Clouds: Overcast
Visibility: 7 miles , 11 km
Cloud details: Partly cloudy 600 ft
Overcast 2100 ft
2017/12/17 15:35 KLMO 171535Z AUTO 11003KT 7SM SCT006 OVC021 01/00 A3004 RMK AO2 T00061003
 
KFLY - Co Spngs Meadow, Colorado, USA
Distance from station: SSE 45mi, 73km
Updated: Sun, 12/17/2017 8:35am MST
Freezing fog, Overcast
Freezing fog, Overcast
 Wind from WSW
Wind: WSW 5 mph , 7 km/h
Temperature: 23°F , -5°C
Wind Chill: 17°F , -8°C
Dew Point: 23°F , -5°C
Humidity: 100%
Barometer: 30.00 inHg , 1015.9 hPa
Summary: Freezing Fog
Clouds: Overcast
Visibility: 1/4 mile , 2 km
Cloud details: Overcast 200 ft
2017/12/17 15:35 KFLY 171535Z AUTO 25004KT 1/4SM FZFG OVC002 M05/M05 A3000 RMK AO2 T10511055
K4BM - Wilkerson Pass, Colorado, USA
Distance from station: SW 48mi, 77km
Updated: Sun, 12/17/2017 8:35am MST
Overcast
Overcast
 Wind from WSW
Wind: WSW 13 mph , 20 km/h, Gust: 18 mph , 30 km/h
Temperature: 21°F , -6°C
Wind Chill: 8°F , -13°C
Dew Point: -4°F , -20°C
Humidity: 32%
Barometer: 29.98 inHg , 1015.2 hPa
Clouds: Overcast
Visibility: 10 miles , 16 km
Cloud details: Mostly cloudy 9500 ft
Overcast 11000 ft
2017/12/17 15:35 K4BM 171535Z AUTO 24011G16KT 10SM BKN095 OVC110 M06/M20 A2998 RMK AO2
 
K0CO - Berthoud Pass, Colorado, USA
Distance from station: WNW 49mi, 79km
Updated: Sun, 12/17/2017 8:30am MST
Partly cloudy
Partly cloudy
 Wind from WNW
Wind: WNW 30 mph , 48 km/h
Temperature: 12°F , -11°C
Wind Chill: -10°F , -23°C
Dew Point: 1°F , -17°C
Humidity: 62%
Barometer: 29.94 inHg , 1013.9 hPa
Clouds: Partly cloudy
Visibility: 10 miles , 16 km
Cloud details: Partly cloudy 12000 ft
2017/12/17 15:30 K0CO 171530Z AUTO 29026KT 10SM SCT120 M11/M17 A2994 RMK AO2